sensor_id;sensor_type;location;lat;lon;timestamp;P1;durP1;ratioP1;P2;durP2;ratioP2
64950;SDS011;51482;47.014;7.652;2022-08-21T00:01:03;3.00;;;2.70;;
64950;SDS011;51482;47.014;7.652;2022-08-21T00:03:34;3.78;;;2.72;;
64950;SDS011;51482;47.014;7.652;2022-08-21T00:06:01;2.80;;;2.25;;
64950;SDS011;51482;47.014;7.652;2022-08-21T00:08:27;2.65;;;1.92;;
64950;SDS011;51482;47.014;7.652;2022-08-21T00:10:52;2.50;;;2.30;;
64950;SDS011;51482;47.014;7.652;2022-08-21T00:13:18;2.13;;;1.98;;
64950;SDS011;51482;47.014;7.652;2022-08-21T00:15:45;4.10;;;1.88;;
64950;SDS011;51482;47.014;7.652;2022-08-21T00:18:12;2.80;;;1.70;;
64950;SDS011;51482;47.014;7.652;2022-08-21T00:20:39;4.13;;;1.80;;
64950;SDS011;51482;47.014;7.652;2022-08-21T00:23:05;2.70;;;2.00;;
64950;SDS011;51482;47.014;7.652;2022-08-21T00:25:31;12.73;;;7.90;;
64950;SDS011;51482;47.014;7.652;2022-08-21T00:27:58;4.47;;;3.30;;
64950;SDS011;51482;47.014;7.652;2022-08-21T00:30:25;5.70;;;2.65;;
64950;SDS011;51482;47.014;7.652;2022-08-21T00:32:51;2.17;;;2.03;;
64950;SDS011;51482;47.014;7.652;2022-08-21T00:35:19;3.70;;;1.95;;
64950;SDS011;51482;47.014;7.652;2022-08-21T00:37:47;2.22;;;2.00;;
64950;SDS011;51482;47.014;7.652;2022-08-21T00:40:15;2.53;;;2.22;;
64950;SDS011;51482;47.014;7.652;2022-08-21T00:42:42;4.70;;;2.50;;
64950;SDS011;51482;47.014;7.652;2022-08-21T00:45:09;3.50;;;2.00;;
64950;SDS011;51482;47.014;7.652;2022-08-21T00:47:35;4.25;;;3.10;;
64950;SDS011;51482;47.014;7.652;2022-08-21T00:50:01;3.05;;;2.15;;
64950;SDS011;51482;47.014;7.652;2022-08-21T00:52:28;3.35;;;2.10;;
64950;SDS011;51482;47.014;7.652;2022-08-21T00:54:56;4.55;;;2.05;;
64950;SDS011;51482;47.014;7.652;2022-08-21T00:57:28;2.92;;;2.05;;
64950;SDS011;51482;47.014;7.652;2022-08-21T00:59:57;2.47;;;2.20;;
64950;SDS011;51482;47.014;7.652;2022-08-21T01:02:24;5.18;;;2.08;;
64950;SDS011;51482;47.014;7.652;2022-08-21T01:04:50;3.10;;;2.10;;
64950;SDS011;51482;47.014;7.652;2022-08-21T01:07:16;2.45;;;1.92;;
64950;SDS011;51482;47.014;7.652;2022-08-21T01:09:43;2.10;;;2.00;;
64950;SDS011;51482;47.014;7.652;2022-08-21T01:12:10;2.72;;;1.88;;
64950;SDS011;51482;47.014;7.652;2022-08-21T01:14:36;1.90;;;1.80;;
64950;SDS011;51482;47.014;7.652;2022-08-21T01:17:04;2.53;;;1.80;;
64950;SDS011;51482;47.014;7.652;2022-08-21T01:19:30;2.70;;;2.10;;
64950;SDS011;51482;47.014;7.652;2022-08-21T01:21:56;3.90;;;2.22;;
64950;SDS011;51482;47.014;7.652;2022-08-21T01:24:22;1.92;;;1.83;;
64950;SDS011;51482;47.014;7.652;2022-08-21T01:26:49;2.40;;;2.20;;
64950;SDS011;51482;47.014;7.652;2022-08-21T01:29:36;2.97;;;1.92;;
64950;SDS011;51482;47.014;7.652;2022-08-21T01:32:09;4.05;;;2.20;;
64950;SDS011;51482;47.014;7.652;2022-08-21T01:34:38;3.78;;;2.10;;
64950;SDS011;51482;47.014;7.652;2022-08-21T01:37:06;6.70;;;2.20;;
64950;SDS011;51482;47.014;7.652;2022-08-21T01:39:33;2.03;;;1.90;;
64950;SDS011;51482;47.014;7.652;2022-08-21T01:41:59;2.88;;;2.03;;
64950;SDS011;51482;47.014;7.652;2022-08-21T01:44:25;2.25;;;2.05;;
64950;SDS011;51482;47.014;7.652;2022-08-21T01:46:52;3.75;;;2.40;;
64950;SDS011;51482;47.014;7.652;2022-08-21T01:49:18;2.80;;;2.20;;
64950;SDS011;51482;47.014;7.652;2022-08-21T01:51:44;2.47;;;2.25;;
64950;SDS011;51482;47.014;7.652;2022-08-21T01:54:10;2.80;;;2.60;;
64950;SDS011;51482;47.014;7.652;2022-08-21T01:56:37;2.30;;;2.10;;
64950;SDS011;51482;47.014;7.652;2022-08-21T01:59:05;2.90;;;2.20;;
64950;SDS011;51482;47.014;7.652;2022-08-21T02:01:31;2.58;;;2.10;;
64950;SDS011;51482;47.014;7.652;2022-08-21T02:03:57;2.08;;;1.83;;
64950;SDS011;51482;47.014;7.652;2022-08-21T02:06:24;2.38;;;2.17;;
64950;SDS011;51482;47.014;7.652;2022-08-21T02:08:50;2.50;;;2.30;;
64950;SDS011;51482;47.014;7.652;2022-08-21T02:11:16;2.88;;;2.60;;
64950;SDS011;51482;47.014;7.652;2022-08-21T02:13:41;3.53;;;2.83;;
64950;SDS011;51482;47.014;7.652;2022-08-21T02:16:07;3.42;;;2.88;;
64950;SDS011;51482;47.014;7.652;2022-08-21T02:18:33;4.25;;;3.20;;
64950;SDS011;51482;47.014;7.652;2022-08-21T02:20:59;4.68;;;2.90;;
64950;SDS011;51482;47.014;7.652;2022-08-21T02:23:26;2.85;;;2.25;;
64950;SDS011;51482;47.014;7.652;2022-08-21T02:25:51;2.53;;;2.33;;
64950;SDS011;51482;47.014;7.652;2022-08-21T02:28:17;3.05;;;2.85;;
64950;SDS011;51482;47.014;7.652;2022-08-21T02:30:44;2.97;;;2.75;;
64950;SDS011;51482;47.014;7.652;2022-08-21T02:33:12;3.83;;;2.67;;
64950;SDS011;51482;47.014;7.652;2022-08-21T02:35:39;7.82;;;3.70;;
64950;SDS011;51482;47.014;7.652;2022-08-21T02:38:10;5.22;;;2.83;;
64950;SDS011;51482;47.014;7.652;2022-08-21T02:40:38;2.90;;;2.67;;
64950;SDS011;51482;47.014;7.652;2022-08-21T02:43:06;2.88;;;2.42;;
64950;SDS011;51482;47.014;7.652;2022-08-21T02:45:32;4.80;;;2.40;;
64950;SDS011;51482;47.014;7.652;2022-08-21T02:48:00;6.53;;;3.28;;
64950;SDS011;51482;47.014;7.652;2022-08-21T02:50:29;4.55;;;2.22;;
64950;SDS011;51482;47.014;7.652;2022-08-21T02:52:58;2.95;;;2.20;;
64950;SDS011;51482;47.014;7.652;2022-08-21T02:55:26;2.80;;;2.10;;
64950;SDS011;51482;47.014;7.652;2022-08-21T02:57:53;2.10;;;2.00;;
64950;SDS011;51482;47.014;7.652;2022-08-21T03:00:20;4.05;;;2.15;;
64950;SDS011;51482;47.014;7.652;2022-08-21T03:02:48;2.22;;;2.10;;
64950;SDS011;51482;47.014;7.652;2022-08-21T03:05:14;1.92;;;1.83;;
64950;SDS011;51482;47.014;7.652;2022-08-21T03:07:41;3.35;;;2.50;;
64950;SDS011;51482;47.014;7.652;2022-08-21T03:10:08;3.45;;;2.13;;
64950;SDS011;51482;47.014;7.652;2022-08-21T03:12:35;2.33;;;2.13;;
64950;SDS011;51482;47.014;7.652;2022-08-21T03:15:02;4.50;;;2.30;;
64950;SDS011;51482;47.014;7.652;2022-08-21T03:17:30;5.68;;;2.35;;
64950;SDS011;51482;47.014;7.652;2022-08-21T03:19:56;6.10;;;2.60;;
64950;SDS011;51482;47.014;7.652;2022-08-21T03:22:22;2.78;;;2.05;;
64950;SDS011;51482;47.014;7.652;2022-08-21T03:24:47;3.78;;;2.45;;
64950;SDS011;51482;47.014;7.652;2022-08-21T03:27:13;2.50;;;2.30;;
64950;SDS011;51482;47.014;7.652;2022-08-21T03:29:39;3.67;;;2.30;;
64950;SDS011;51482;47.014;7.652;2022-08-21T03:32:05;2.45;;;2.22;;
64950;SDS011;51482;47.014;7.652;2022-08-21T03:34:34;6.55;;;2.20;;
64950;SDS011;51482;47.014;7.652;2022-08-21T03:37:00;2.03;;;1.92;;
64950;SDS011;51482;47.014;7.652;2022-08-21T03:39:26;2.92;;;1.98;;
64950;SDS011;51482;47.014;7.652;2022-08-21T03:41:52;3.42;;;2.42;;
64950;SDS011;51482;47.014;7.652;2022-08-21T03:44:19;2.38;;;2.20;;
64950;SDS011;51482;47.014;7.652;2022-08-21T03:46:44;2.50;;;2.30;;
64950;SDS011;51482;47.014;7.652;2022-08-21T03:49:10;4.18;;;1.95;;
64950;SDS011;51482;47.014;7.652;2022-08-21T03:51:35;1.95;;;1.80;;
64950;SDS011;51482;47.014;7.652;2022-08-21T03:54:01;2.67;;;1.85;;
64950;SDS011;51482;47.014;7.652;2022-08-21T03:56:28;3.85;;;2.53;;
64950;SDS011;51482;47.014;7.652;2022-08-21T03:58:53;4.93;;;2.72;;
64950;SDS011;51482;47.014;7.652;2022-08-21T04:01:19;2.75;;;1.98;;
64950;SDS011;51482;47.014;7.652;2022-08-21T04:03:44;3.65;;;2.47;;
64950;SDS011;51482;47.014;7.652;2022-08-21T04:06:10;2.03;;;1.88;;
64950;SDS011;51482;47.014;7.652;2022-08-21T04:08:36;3.33;;;2.22;;
64950;SDS011;51482;47.014;7.652;2022-08-21T04:11:01;2.45;;;2.25;;
64950;SDS011;51482;47.014;7.652;2022-08-21T04:13:27;4.63;;;2.42;;
64950;SDS011;51482;47.014;7.652;2022-08-21T04:15:53;3.88;;;2.08;;
64950;SDS011;51482;47.014;7.652;2022-08-21T04:18:20;3.20;;;2.33;;
64950;SDS011;51482;47.014;7.652;2022-08-21T04:20:46;4.20;;;2.10;;
64950;SDS011;51482;47.014;7.652;2022-08-21T04:23:14;2.15;;;1.95;;
64950;SDS011;51482;47.014;7.652;2022-08-21T04:25:39;3.80;;;2.67;;
64950;SDS011;51482;47.014;7.652;2022-08-21T04:28:05;3.08;;;2.05;;
64950;SDS011;51482;47.014;7.652;2022-08-21T04:30:31;2.35;;;2.20;;
64950;SDS011;51482;47.014;7.652;2022-08-21T04:32:57;3.17;;;2.38;;
64950;SDS011;51482;47.014;7.652;2022-08-21T04:35:23;4.93;;;2.28;;
64950;SDS011;51482;47.014;7.652;2022-08-21T04:37:50;3.03;;;2.40;;
64950;SDS011;51482;47.014;7.652;2022-08-21T04:40:17;4.60;;;2.42;;
64950;SDS011;51482;47.014;7.652;2022-08-21T04:42:48;2.65;;;2.17;;
64950;SDS011;51482;47.014;7.652;2022-08-21T04:45:16;2.47;;;2.28;;
64950;SDS011;51482;47.014;7.652;2022-08-21T04:47:50;2.25;;;2.10;;
64950;SDS011;51482;47.014;7.652;2022-08-21T04:50:17;2.30;;;1.90;;
64950;SDS011;51482;47.014;7.652;2022-08-21T04:52:43;2.10;;;1.90;;
64950;SDS011;51482;47.014;7.652;2022-08-21T04:55:09;3.17;;;1.88;;
64950;SDS011;51482;47.014;7.652;2022-08-21T04:57:35;2.70;;;1.73;;
64950;SDS011;51482;47.014;7.652;2022-08-21T05:00:02;2.63;;;2.33;;
64950;SDS011;51482;47.014;7.652;2022-08-21T05:02:30;3.50;;;2.20;;
64950;SDS011;51482;47.014;7.652;2022-08-21T05:04:58;2.90;;;1.85;;
64950;SDS011;51482;47.014;7.652;2022-08-21T05:07:26;2.42;;;2.17;;
64950;SDS011;51482;47.014;7.652;2022-08-21T05:09:54;2.60;;;1.90;;
64950;SDS011;51482;47.014;7.652;2022-08-21T05:12:20;2.25;;;2.03;;
64950;SDS011;51482;47.014;7.652;2022-08-21T05:14:47;3.22;;;2.28;;
64950;SDS011;51482;47.014;7.652;2022-08-21T05:17:13;2.95;;;2.28;;
64950;SDS011;51482;47.014;7.652;2022-08-21T05:19:39;2.53;;;2.20;;
64950;SDS011;51482;47.014;7.652;2022-08-21T05:22:05;4.30;;;2.35;;
64950;SDS011;51482;47.014;7.652;2022-08-21T05:24:31;2.97;;;2.47;;
64950;SDS011;51482;47.014;7.652;2022-08-21T05:26:57;2.75;;;2.10;;
64950;SDS011;51482;47.014;7.652;2022-08-21T05:29:23;2.80;;;2.10;;
64950;SDS011;51482;47.014;7.652;2022-08-21T05:31:49;2.50;;;2.30;;
64950;SDS011;51482;47.014;7.652;2022-08-21T05:34:17;2.50;;;2.30;;
64950;SDS011;51482;47.014;7.652;2022-08-21T05:36:46;2.60;;;2.40;;
64950;SDS011;51482;47.014;7.652;2022-08-21T05:39:13;6.85;;;3.83;;
64950;SDS011;51482;47.014;7.652;2022-08-21T05:41:39;2.05;;;1.95;;
64950;SDS011;51482;47.014;7.652;2022-08-21T05:44:04;2.78;;;2.53;;
64950;SDS011;51482;47.014;7.652;2022-08-21T05:46:30;4.47;;;2.35;;
64950;SDS011;51482;47.014;7.652;2022-08-21T05:48:55;2.70;;;2.50;;
64950;SDS011;51482;47.014;7.652;2022-08-21T05:51:21;3.00;;;2.70;;
64950;SDS011;51482;47.014;7.652;2022-08-21T05:53:47;2.83;;;2.63;;
64950;SDS011;51482;47.014;7.652;2022-08-21T05:56:13;2.33;;;2.13;;
64950;SDS011;51482;47.014;7.652;2022-08-21T05:58:39;2.50;;;2.30;;
64950;SDS011;51482;47.014;7.652;2022-08-21T06:01:05;2.60;;;2.40;;
64950;SDS011;51482;47.014;7.652;2022-08-21T06:03:32;4.38;;;2.42;;
64950;SDS011;51482;47.014;7.652;2022-08-21T06:06:00;3.10;;;2.40;;
64950;SDS011;51482;47.014;7.652;2022-08-21T06:08:26;2.42;;;2.22;;
64950;SDS011;51482;47.014;7.652;2022-08-21T06:10:52;3.95;;;2.70;;
64950;SDS011;51482;47.014;7.652;2022-08-21T06:13:20;2.60;;;2.40;;
64950;SDS011;51482;47.014;7.652;2022-08-21T06:15:47;2.95;;;2.58;;
64950;SDS011;51482;47.014;7.652;2022-08-21T06:18:13;2.28;;;2.17;;
64950;SDS011;51482;47.014;7.652;2022-08-21T06:20:40;3.00;;;2.70;;
64950;SDS011;51482;47.014;7.652;2022-08-21T06:23:06;2.92;;;2.13;;
64950;SDS011;51482;47.014;7.652;2022-08-21T06:25:32;2.50;;;2.30;;
64950;SDS011;51482;47.014;7.652;2022-08-21T06:28:05;2.58;;;2.38;;
64950;SDS011;51482;47.014;7.652;2022-08-21T06:30:33;2.40;;;2.22;;
64950;SDS011;51482;47.014;7.652;2022-08-21T06:32:59;2.45;;;2.22;;
64950;SDS011;51482;47.014;7.652;2022-08-21T06:35:25;3.05;;;2.30;;
64950;SDS011;51482;47.014;7.652;2022-08-21T06:37:51;2.28;;;2.10;;
64950;SDS011;51482;47.014;7.652;2022-08-21T06:40:17;5.43;;;1.95;;
64950;SDS011;51482;47.014;7.652;2022-08-21T06:42:43;1.50;;;1.40;;
64950;SDS011;51482;47.014;7.652;2022-08-21T06:45:09;1.95;;;1.85;;
64950;SDS011;51482;47.014;7.652;2022-08-21T06:47:35;3.30;;;1.83;;
64950;SDS011;51482;47.014;7.652;2022-08-21T06:50:01;2.58;;;1.90;;
64950;SDS011;51482;47.014;7.652;2022-08-21T06:52:28;2.17;;;2.00;;
64950;SDS011;51482;47.014;7.652;2022-08-21T06:54:54;2.35;;;2.10;;
64950;SDS011;51482;47.014;7.652;2022-08-21T06:57:19;4.18;;;2.40;;
64950;SDS011;51482;47.014;7.652;2022-08-21T06:59:45;2.58;;;2.17;;
64950;SDS011;51482;47.014;7.652;2022-08-21T07:02:10;2.65;;;2.08;;
64950;SDS011;51482;47.014;7.652;2022-08-21T07:04:36;2.67;;;2.47;;
64950;SDS011;51482;47.014;7.652;2022-08-21T07:07:01;2.75;;;2.38;;
64950;SDS011;51482;47.014;7.652;2022-08-21T07:09:27;2.40;;;2.20;;
64950;SDS011;51482;47.014;7.652;2022-08-21T07:11:53;2.85;;;2.00;;
64950;SDS011;51482;47.014;7.652;2022-08-21T07:14:20;2.30;;;2.10;;
64950;SDS011;51482;47.014;7.652;2022-08-21T07:16:47;2.80;;;2.40;;
64950;SDS011;51482;47.014;7.652;2022-08-21T07:19:13;4.93;;;2.38;;
64950;SDS011;51482;47.014;7.652;2022-08-21T07:21:38;2.35;;;2.13;;
64950;SDS011;51482;47.014;7.652;2022-08-21T07:24:05;2.30;;;2.20;;
64950;SDS011;51482;47.014;7.652;2022-08-21T07:26:31;3.67;;;2.50;;
64950;SDS011;51482;47.014;7.652;2022-08-21T07:28:57;4.22;;;2.40;;
64950;SDS011;51482;47.014;7.652;2022-08-21T07:31:23;1.90;;;1.80;;
64950;SDS011;51482;47.014;7.652;2022-08-21T07:33:50;3.72;;;2.30;;
64950;SDS011;51482;47.014;7.652;2022-08-21T07:36:18;2.72;;;2.20;;
64950;SDS011;51482;47.014;7.652;2022-08-21T07:38:44;2.20;;;2.00;;
64950;SDS011;51482;47.014;7.652;2022-08-21T07:41:15;2.17;;;2.00;;
64950;SDS011;51482;47.014;7.652;2022-08-21T07:43:42;2.67;;;2.30;;
64950;SDS011;51482;47.014;7.652;2022-08-21T07:46:08;2.15;;;2.05;;
64950;SDS011;51482;47.014;7.652;2022-08-21T07:48:34;2.70;;;2.10;;
64950;SDS011;51482;47.014;7.652;2022-08-21T07:51:00;2.28;;;2.13;;
64950;SDS011;51482;47.014;7.652;2022-08-21T07:53:29;1.92;;;1.80;;
64950;SDS011;51482;47.014;7.652;2022-08-21T07:55:58;3.17;;;2.45;;
64950;SDS011;51482;47.014;7.652;2022-08-21T07:58:24;2.42;;;2.22;;
64950;SDS011;51482;47.014;7.652;2022-08-21T08:00:50;2.58;;;2.00;;
64950;SDS011;51482;47.014;7.652;2022-08-21T08:03:16;2.40;;;2.20;;
64950;SDS011;51482;47.014;7.652;2022-08-21T08:05:41;2.35;;;2.15;;
64950;SDS011;51482;47.014;7.652;2022-08-21T08:08:08;2.17;;;1.98;;
64950;SDS011;51482;47.014;7.652;2022-08-21T08:10:34;2.03;;;1.90;;
64950;SDS011;51482;47.014;7.652;2022-08-21T08:13:02;2.00;;;1.90;;
64950;SDS011;51482;47.014;7.652;2022-08-21T08:15:27;4.03;;;2.10;;
64950;SDS011;51482;47.014;7.652;2022-08-21T08:17:54;2.30;;;2.10;;
64950;SDS011;51482;47.014;7.652;2022-08-21T08:20:20;2.67;;;2.10;;
64950;SDS011;51482;47.014;7.652;2022-08-21T08:22:48;2.30;;;2.20;;
64950;SDS011;51482;47.014;7.652;2022-08-21T08:25:14;2.30;;;2.08;;
64950;SDS011;51482;47.014;7.652;2022-08-21T08:27:41;2.50;;;2.30;;
64950;SDS011;51482;47.014;7.652;2022-08-21T08:30:08;3.20;;;2.40;;
64950;SDS011;51482;47.014;7.652;2022-08-21T08:32:35;2.47;;;2.17;;
64950;SDS011;51482;47.014;7.652;2022-08-21T08:35:01;2.70;;;2.35;;
64950;SDS011;51482;47.014;7.652;2022-08-21T08:37:27;3.53;;;2.53;;
64950;SDS011;51482;47.014;7.652;2022-08-21T08:39:53;2.28;;;2.08;;
64950;SDS011;51482;47.014;7.652;2022-08-21T08:42:21;2.50;;;2.35;;
64950;SDS011;51482;47.014;7.652;2022-08-21T08:44:50;2.95;;;2.50;;
64950;SDS011;51482;47.014;7.652;2022-08-21T08:47:23;2.72;;;2.53;;
64950;SDS011;51482;47.014;7.652;2022-08-21T08:52:36;2.40;;;2.20;;
64950;SDS011;51482;47.014;7.652;2022-08-21T08:55:12;2.60;;;2.40;;
64950;SDS011;51482;47.014;7.652;2022-08-21T08:57:59;2.85;;;2.55;;
64950;SDS011;51482;47.014;7.652;2022-08-21T09:00:26;3.03;;;2.63;;
64950;SDS011;51482;47.014;7.652;2022-08-21T09:02:52;2.78;;;2.50;;
64950;SDS011;51482;47.014;7.652;2022-08-21T09:05:22;2.60;;;2.40;;
64950;SDS011;51482;47.014;7.652;2022-08-21T09:21:41;2.70;;;2.50;;
64950;SDS011;51482;47.014;7.652;2022-08-21T09:27:15;3.17;;;2.88;;
64950;SDS011;51482;47.014;7.652;2022-08-21T09:29:43;2.72;;;2.53;;
64950;SDS011;51482;47.014;7.652;2022-08-21T09:32:17;2.60;;;2.40;;
64950;SDS011;51482;47.014;7.652;2022-08-21T09:34:54;2.85;;;2.65;;
64950;SDS011;51482;47.014;7.652;2022-08-21T09:37:23;3.10;;;2.83;;
64950;SDS011;51482;47.014;7.652;2022-08-21T09:39:49;2.63;;;2.40;;
64950;SDS011;51482;47.014;7.652;2022-08-21T09:42:21;2.50;;;2.30;;
64950;SDS011;51482;47.014;7.652;2022-08-21T09:45:00;2.58;;;2.38;;
64950;SDS011;51482;47.014;7.652;2022-08-21T09:47:31;4.10;;;2.13;;
64950;SDS011;51482;47.014;7.652;2022-08-21T09:50:06;2.00;;;1.70;;
64950;SDS011;51482;47.014;7.652;2022-08-21T09:52:34;2.47;;;2.28;;
64950;SDS011;51482;47.014;7.652;2022-08-21T09:54:59;2.50;;;2.00;;
64950;SDS011;51482;47.014;7.652;2022-08-21T09:57:45;2.00;;;1.80;;
64950;SDS011;51482;47.014;7.652;2022-08-21T10:02:47;2.40;;;2.20;;
64950;SDS011;51482;47.014;7.652;2022-08-21T10:05:26;2.00;;;1.90;;
64950;SDS011;51482;47.014;7.652;2022-08-21T10:07:52;1.50;;;1.50;;
64950;SDS011;51482;47.014;7.652;2022-08-21T10:10:19;2.67;;;1.80;;
64950;SDS011;51482;47.014;7.652;2022-08-21T10:15:27;1.70;;;1.60;;
64950;SDS011;51482;47.014;7.652;2022-08-21T10:21:05;1.70;;;1.60;;
64950;SDS011;51482;47.014;7.652;2022-08-21T10:26:55;2.72;;;1.63;;
64950;SDS011;51482;47.014;7.652;2022-08-21T10:32:24;1.70;;;1.60;;
64950;SDS011;51482;47.014;7.652;2022-08-21T10:35:10;2.10;;;1.90;;
64950;SDS011;51482;47.014;7.652;2022-08-21T10:41:31;1.58;;;1.48;;
64950;SDS011;51482;47.014;7.652;2022-08-21T10:44:12;2.70;;;2.50;;
64950;SDS011;51482;47.014;7.652;2022-08-21T10:54:53;3.35;;;3.05;;
64950;SDS011;51482;47.014;7.652;2022-08-21T10:57:27;1.20;;;1.20;;
64950;SDS011;51482;47.014;7.652;2022-08-21T11:00:15;1.17;;;1.17;;
64950;SDS011;51482;47.014;7.652;2022-08-21T11:05:14;1.40;;;1.30;;
64950;SDS011;51482;47.014;7.652;2022-08-21T11:12:55;2.50;;;2.30;;
64950;SDS011;51482;47.014;7.652;2022-08-21T11:29:53;1.40;;;1.40;;
64950;SDS011;51482;47.014;7.652;2022-08-21T11:32:43;2.50;;;2.30;;
64950;SDS011;51482;47.014;7.652;2022-08-21T11:35:48;1.88;;;1.60;;
64950;SDS011;51482;47.014;7.652;2022-08-21T11:38:26;3.00;;;2.67;;
64950;SDS011;51482;47.014;7.652;2022-08-21T11:41:08;2.25;;;2.05;;
64950;SDS011;51482;47.014;7.652;2022-08-21T11:43:46;3.88;;;3.47;;
64950;SDS011;51482;47.014;7.652;2022-08-21T11:51:48;1.90;;;1.80;;
64950;SDS011;51482;47.014;7.652;2022-08-21T11:57:13;1.27;;;1.27;;
64950;SDS011;51482;47.014;7.652;2022-08-21T12:02:48;1.95;;;1.27;;
64950;SDS011;51482;47.014;7.652;2022-08-21T12:05:23;1.58;;;1.30;;
64950;SDS011;51482;47.014;7.652;2022-08-21T12:10:39;1.17;;;1.17;;
64950;SDS011;51482;47.014;7.652;2022-08-21T12:13:07;1.42;;;1.33;;
64950;SDS011;51482;47.014;7.652;2022-08-21T12:15:48;1.30;;;1.20;;
64950;SDS011;51482;47.014;7.652;2022-08-21T12:18:21;1.10;;;1.10;;
64950;SDS011;51482;47.014;7.652;2022-08-21T12:20:57;2.10;;;1.02;;
64950;SDS011;51482;47.014;7.652;2022-08-21T12:23:49;1.30;;;1.20;;
64950;SDS011;51482;47.014;7.652;2022-08-21T12:26:28;1.52;;;1.40;;
64950;SDS011;51482;47.014;7.652;2022-08-21T12:29:14;1.02;;;0.82;;
64950;SDS011;51482;47.014;7.652;2022-08-21T12:34:37;1.42;;;1.20;;
64950;SDS011;51482;47.014;7.652;2022-08-21T12:37:56;1.23;;;1.20;;
64950;SDS011;51482;47.014;7.652;2022-08-21T12:40:09;1.00;;;1.00;;
64950;SDS011;51482;47.014;7.652;2022-08-21T12:42:57;1.10;;;1.10;;
64950;SDS011;51482;47.014;7.652;2022-08-21T12:45:34;0.90;;;0.90;;
64950;SDS011;51482;47.014;7.652;2022-08-21T12:51:10;1.60;;;1.30;;
64950;SDS011;51482;47.014;7.652;2022-08-21T12:53:52;0.95;;;0.95;;
64950;SDS011;51482;47.014;7.652;2022-08-21T12:56:21;2.25;;;1.08;;
64950;SDS011;51482;47.014;7.652;2022-08-21T12:58:56;0.82;;;0.82;;
64950;SDS011;51482;47.014;7.652;2022-08-21T13:01:32;0.85;;;0.85;;
64950;SDS011;51482;47.014;7.652;2022-08-21T13:04:14;1.02;;;1.02;;
64950;SDS011;51482;47.014;7.652;2022-08-21T13:06:46;1.25;;;1.15;;
64950;SDS011;51482;47.014;7.652;2022-08-21T13:09:15;1.00;;;1.00;;
64950;SDS011;51482;47.014;7.652;2022-08-21T13:11:45;1.15;;;1.15;;
64950;SDS011;51482;47.014;7.652;2022-08-21T13:16:59;0.98;;;0.98;;
64950;SDS011;51482;47.014;7.652;2022-08-21T13:19:27;1.13;;;1.13;;
64950;SDS011;51482;47.014;7.652;2022-08-21T13:21:55;1.45;;;1.05;;
64950;SDS011;51482;47.014;7.652;2022-08-21T13:24:25;1.15;;;1.15;;
64950;SDS011;51482;47.014;7.652;2022-08-21T13:26:58;0.93;;;0.93;;
64950;SDS011;51482;47.014;7.652;2022-08-21T13:29:28;1.35;;;1.30;;
64950;SDS011;51482;47.014;7.652;2022-08-21T13:31:57;1.00;;;1.00;;
64950;SDS011;51482;47.014;7.652;2022-08-21T13:34:33;1.08;;;1.08;;
64950;SDS011;51482;47.014;7.652;2022-08-21T13:37:03;2.88;;;1.17;;
64950;SDS011;51482;47.014;7.652;2022-08-21T13:39:31;0.88;;;0.88;;
64950;SDS011;51482;47.014;7.652;2022-08-21T13:41:58;0.82;;;0.82;;
64950;SDS011;51482;47.014;7.652;2022-08-21T13:44:42;1.17;;;1.17;;
64950;SDS011;51482;47.014;7.652;2022-08-21T13:47:11;1.00;;;1.00;;
64950;SDS011;51482;47.014;7.652;2022-08-21T13:49:47;1.30;;;1.20;;
64950;SDS011;51482;47.014;7.652;2022-08-21T13:52:22;1.10;;;0.85;;
64950;SDS011;51482;47.014;7.652;2022-08-21T13:54:54;0.93;;;0.90;;
64950;SDS011;51482;47.014;7.652;2022-08-21T13:59:52;0.88;;;0.88;;
64950;SDS011;51482;47.014;7.652;2022-08-21T14:02:37;1.45;;;0.95;;
64950;SDS011;51482;47.014;7.652;2022-08-21T14:05:04;1.02;;;1.02;;
64950;SDS011;51482;47.014;7.652;2022-08-21T14:07:37;1.10;;;1.10;;
64950;SDS011;51482;47.014;7.652;2022-08-21T14:10:07;2.97;;;0.90;;
64950;SDS011;51482;47.014;7.652;2022-08-21T14:12:43;1.00;;;1.00;;
64950;SDS011;51482;47.014;7.652;2022-08-21T14:15:15;0.88;;;0.88;;
64950;SDS011;51482;47.014;7.652;2022-08-21T14:17:43;0.98;;;0.98;;
64950;SDS011;51482;47.014;7.652;2022-08-21T14:20:11;1.25;;;1.15;;
64950;SDS011;51482;47.014;7.652;2022-08-21T14:22:49;1.10;;;1.08;;
64950;SDS011;51482;47.014;7.652;2022-08-21T14:27:58;1.10;;;1.00;;
64950;SDS011;51482;47.014;7.652;2022-08-21T14:32:57;1.88;;;1.00;;
64950;SDS011;51482;47.014;7.652;2022-08-21T14:35:23;0.77;;;0.77;;
64950;SDS011;51482;47.014;7.652;2022-08-21T14:37:50;1.00;;;1.00;;
64950;SDS011;51482;47.014;7.652;2022-08-21T14:40:16;0.90;;;0.90;;
64950;SDS011;51482;47.014;7.652;2022-08-21T14:42:42;0.60;;;0.60;;
64950;SDS011;51482;47.014;7.652;2022-08-21T14:45:19;1.38;;;0.90;;
64950;SDS011;51482;47.014;7.652;2022-08-21T14:47:50;0.70;;;0.70;;
64950;SDS011;51482;47.014;7.652;2022-08-21T14:50:16;0.90;;;0.90;;
64950;SDS011;51482;47.014;7.652;2022-08-21T14:52:42;0.70;;;0.70;;
64950;SDS011;51482;47.014;7.652;2022-08-21T14:55:10;1.08;;;0.80;;
64950;SDS011;51482;47.014;7.652;2022-08-21T14:57:39;0.60;;;0.60;;
64950;SDS011;51482;47.014;7.652;2022-08-21T15:00:08;0.90;;;0.90;;
64950;SDS011;51482;47.014;7.652;2022-08-21T15:02:35;0.82;;;0.82;;
64950;SDS011;51482;47.014;7.652;2022-08-21T15:05:00;0.95;;;0.95;;
64950;SDS011;51482;47.014;7.652;2022-08-21T15:07:26;1.23;;;1.13;;
64950;SDS011;51482;47.014;7.652;2022-08-21T15:09:52;0.77;;;0.75;;
64950;SDS011;51482;47.014;7.652;2022-08-21T15:12:17;0.70;;;0.70;;
64950;SDS011;51482;47.014;7.652;2022-08-21T15:14:43;1.20;;;1.20;;
64950;SDS011;51482;47.014;7.652;2022-08-21T15:17:09;0.57;;;0.57;;
64950;SDS011;51482;47.014;7.652;2022-08-21T15:19:37;1.38;;;0.63;;
64950;SDS011;51482;47.014;7.652;2022-08-21T15:22:02;1.25;;;1.17;;
64950;SDS011;51482;47.014;7.652;2022-08-21T15:24:28;0.75;;;0.75;;
64950;SDS011;51482;47.014;7.652;2022-08-21T15:26:55;1.17;;;1.08;;
64950;SDS011;51482;47.014;7.652;2022-08-21T15:29:23;0.88;;;0.70;;
64950;SDS011;51482;47.014;7.652;2022-08-21T15:31:51;0.70;;;0.70;;
64950;SDS011;51482;47.014;7.652;2022-08-21T15:34:25;0.80;;;0.80;;
64950;SDS011;51482;47.014;7.652;2022-08-21T15:36:53;0.82;;;0.82;;
64950;SDS011;51482;47.014;7.652;2022-08-21T15:39:22;0.90;;;0.90;;
64950;SDS011;51482;47.014;7.652;2022-08-21T15:41:49;1.13;;;0.90;;
64950;SDS011;51482;47.014;7.652;2022-08-21T15:44:14;1.15;;;0.90;;
64950;SDS011;51482;47.014;7.652;2022-08-21T15:46:41;1.02;;;1.00;;
64950;SDS011;51482;47.014;7.652;2022-08-21T15:49:07;0.85;;;0.85;;
64950;SDS011;51482;47.014;7.652;2022-08-21T15:51:33;0.90;;;0.90;;
64950;SDS011;51482;47.014;7.652;2022-08-21T15:53:59;0.70;;;0.70;;
64950;SDS011;51482;47.014;7.652;2022-08-21T15:56:26;0.88;;;0.88;;
64950;SDS011;51482;47.014;7.652;2022-08-21T15:59:01;0.80;;;0.80;;
64950;SDS011;51482;47.014;7.652;2022-08-21T16:01:36;1.20;;;1.10;;
64950;SDS011;51482;47.014;7.652;2022-08-21T16:04:03;1.10;;;1.00;;
64950;SDS011;51482;47.014;7.652;2022-08-21T16:06:30;1.00;;;1.00;;
64950;SDS011;51482;47.014;7.652;2022-08-21T16:08:57;1.20;;;0.80;;
64950;SDS011;51482;47.014;7.652;2022-08-21T16:11:23;1.05;;;1.05;;
64950;SDS011;51482;47.014;7.652;2022-08-21T16:13:49;0.90;;;0.90;;
64950;SDS011;51482;47.014;7.652;2022-08-21T16:16:19;1.15;;;1.05;;
64950;SDS011;51482;47.014;7.652;2022-08-21T16:18:46;1.05;;;1.05;;
64950;SDS011;51482;47.014;7.652;2022-08-21T16:21:13;0.80;;;0.80;;
64950;SDS011;51482;47.014;7.652;2022-08-21T16:23:39;1.02;;;1.00;;
64950;SDS011;51482;47.014;7.652;2022-08-21T16:26:05;1.00;;;1.00;;
64950;SDS011;51482;47.014;7.652;2022-08-21T16:28:33;1.00;;;1.00;;
64950;SDS011;51482;47.014;7.652;2022-08-21T16:31:01;0.90;;;0.90;;
64950;SDS011;51482;47.014;7.652;2022-08-21T16:33:32;1.80;;;0.95;;
64950;SDS011;51482;47.014;7.652;2022-08-21T16:36:03;1.48;;;1.38;;